createdAt,value
2019-04-21T00:01:54.527Z,9.10
2019-04-21T00:04:40.693Z,11.23
2019-04-21T00:07:14.466Z,10.30
2019-04-21T00:09:50.561Z,10.27
2019-04-21T00:12:15.446Z,11.40
2019-04-21T00:14:35.807Z,11.80
2019-04-21T00:17:02.814Z,16.23
2019-04-21T00:19:29.862Z,12.70
2019-04-21T00:22:09.904Z,11.23
2019-04-21T00:24:41.477Z,10.27
2019-04-21T00:27:09.898Z,14.13
2019-04-21T00:29:45.624Z,15.87
2019-04-21T00:32:10.501Z,11.30
2019-04-21T00:34:25.763Z,10.30
2019-04-21T00:37:05.861Z,15.20
2019-04-21T00:42:13.885Z,10.43
2019-04-21T00:44:33.233Z,10.70
2019-04-21T00:47:09.155Z,9.53
2019-04-21T00:49:42.755Z,11.43
2019-04-21T00:55:14.052Z,10.53
2019-04-21T00:57:43.093Z,9.00
2019-04-21T01:00:09.686Z,13.20
2019-04-21T01:02:39.929Z,11.63
2019-04-21T01:05:10.904Z,11.03
2019-04-21T01:07:39.293Z,10.83
2019-04-21T01:09:58.752Z,10.90
2019-04-21T01:12:37.668Z,9.17
2019-04-21T01:15:09.220Z,10.53
2019-04-21T01:17:38.895Z,8.17
2019-04-21T01:20:00.003Z,12.83
2019-04-21T01:22:12.986Z,9.80
2019-04-21T01:24:45.239Z,9.50
2019-04-21T01:27:22.434Z,11.23
2019-04-21T01:30:02.554Z,16.00
2019-04-21T01:32:35.236Z,11.83
2019-04-21T01:35:05.180Z,12.80
2019-04-21T01:37:40.479Z,11.27
2019-04-21T01:40:08.445Z,15.23
2019-04-21T01:42:32.709Z,11.43
2019-04-21T01:45:02.433Z,12.00
2019-04-21T01:47:25.204Z,14.53
2019-04-21T01:49:52.577Z,10.43
2019-04-21T01:52:38.661Z,12.73
2019-04-21T01:55:06.486Z,14.50
2019-04-21T01:57:52.782Z,20.60
2019-04-21T02:00:19.028Z,15.40
2019-04-21T02:03:18.751Z,22.67
2019-04-21T02:05:31.346Z,22.97
2019-04-21T02:07:54.934Z,23.37
2019-04-21T02:10:34.669Z,22.37
2019-04-21T02:12:57.094Z,17.60
2019-04-21T02:15:31.150Z,11.67
2019-04-21T02:17:59.398Z,16.23
2019-04-21T02:20:23.014Z,14.90
2019-04-21T02:23:10.315Z,15.80
2019-04-21T02:25:33.564Z,22.73
2019-04-21T02:28:07.223Z,23.17
2019-04-21T02:31:05.677Z,13.87
2019-04-21T02:33:08.637Z,21.00
2019-04-21T02:38:11.811Z,12.47
2019-04-21T02:40:48.011Z,25.17
2019-04-21T02:43:11.237Z,14.50
2019-04-21T02:45:37.843Z,18.97
2019-04-21T02:48:11.359Z,18.47
2019-04-21T02:50:39.852Z,19.63
2019-04-21T02:53:11.789Z,24.40
2019-04-21T02:55:38.817Z,20.17
2019-04-21T03:01:06.996Z,17.77
2019-04-21T03:03:37.815Z,23.43
2019-04-21T03:06:18.708Z,19.70
2019-04-21T03:08:57.058Z,16.00
2019-04-21T03:13:54.840Z,22.80
2019-04-21T03:16:22.954Z,26.53
2019-04-21T03:21:15.433Z,33.33
2019-04-21T03:23:53.645Z,26.00
2019-04-21T03:26:28.903Z,17.53
2019-04-21T03:28:48.050Z,15.80
2019-04-21T03:31:52.318Z,24.20
2019-04-21T03:38:45.350Z,25.80
2019-04-21T03:41:26.966Z,16.63
2019-04-21T03:43:43.901Z,16.43
2019-04-21T03:46:16.443Z,19.93
2019-04-21T03:48:51.625Z,28.10
2019-04-21T03:56:27.800Z,39.37
2019-04-21T03:58:54.406Z,25.63
2019-04-21T04:04:07.020Z,21.13
2019-04-21T04:06:40.292Z,27.83
2019-04-21T04:09:27.260Z,27.20
2019-04-21T04:14:26.617Z,18.73
2019-04-21T04:19:30.933Z,18.13
2019-04-21T04:21:57.424Z,17.40
2019-04-21T04:24:29.958Z,24.93
2019-04-21T04:29:24.246Z,25.83
2019-04-21T04:34:37.813Z,22.27
2019-04-21T04:37:12.697Z,24.57
2019-04-21T04:39:42.701Z,21.10
2019-04-21T04:42:31.948Z,28.90
2019-04-21T04:49:49.710Z,22.83
2019-04-21T04:57:18.301Z,15.33
2019-04-21T04:59:42.506Z,17.10
2019-04-21T05:02:20.333Z,14.50
2019-04-21T05:07:18.750Z,17.47
2019-04-21T05:09:39.396Z,14.53
2019-04-21T05:12:05.885Z,17.77
2019-04-21T05:14:39.017Z,17.90
2019-04-21T05:17:14.071Z,15.13
2019-04-21T05:19:41.888Z,17.57
2019-04-21T05:22:14.270Z,11.73
2019-04-21T05:24:29.544Z,15.83
2019-04-21T05:27:00.758Z,13.43
2019-04-21T05:29:40.268Z,15.83
2019-04-21T05:32:12.807Z,14.70
2019-04-21T05:34:43.042Z,13.97
2019-04-21T05:37:14.169Z,13.87
2019-04-21T05:39:47.973Z,14.90
2019-04-21T05:42:09.251Z,12.47
2019-04-21T05:45:04.348Z,14.60
2019-04-21T05:47:26.512Z,13.13
2019-04-21T05:49:53.481Z,15.73
2019-04-21T05:52:21.320Z,14.03
2019-04-21T05:54:57.001Z,12.17
2019-04-21T05:57:20.637Z,19.27
2019-04-21T05:59:54.345Z,13.90
2019-04-21T06:05:10.423Z,17.03
2019-04-21T06:07:28.738Z,16.07
2019-04-21T06:10:07.240Z,18.90
2019-04-21T06:12:28.596Z,13.00
2019-04-21T06:15:00.909Z,15.70
2019-04-21T06:17:31.416Z,17.50
2019-04-21T06:22:27.416Z,15.77
2019-04-21T06:25:21.977Z,18.53
2019-04-21T06:27:42.448Z,17.17
2019-04-21T06:30:19.152Z,15.57
2019-04-21T06:32:46.116Z,21.87
2019-04-21T06:42:28.352Z,16.33
2019-04-21T06:47:39.108Z,16.97
2019-04-21T06:50:15.844Z,16.43
2019-04-21T06:55:03.371Z,16.37
2019-04-21T06:59:58.721Z,15.93
2019-04-21T07:02:43.700Z,14.77
2019-04-21T07:05:02.034Z,17.53
2019-04-21T07:07:27.623Z,18.53
2019-04-21T07:10:01.415Z,17.63
2019-04-21T07:12:29.594Z,16.90
2019-04-21T07:14:59.475Z,18.57
2019-04-21T07:17:30.720Z,16.50
2019-04-21T07:20:02.079Z,15.73
2019-04-21T07:22:33.718Z,20.10
2019-04-21T07:25:03.103Z,15.67
2019-04-21T07:27:33.919Z,16.13
2019-04-21T07:30:02.120Z,15.90
2019-04-21T07:32:26.446Z,18.70
2019-04-21T07:35:06.595Z,19.70
2019-04-21T07:37:30.512Z,15.73
2019-04-21T07:39:54.602Z,18.00
2019-04-21T07:42:24.999Z,17.77
2019-04-21T07:44:52.282Z,16.97
2019-04-21T07:47:26.801Z,19.00
2019-04-21T07:50:00.542Z,17.23
2019-04-21T07:52:57.317Z,16.97
2019-04-21T07:57:33.200Z,17.70
2019-04-21T08:00:15.046Z,15.77
2019-04-21T08:02:34.056Z,15.10
2019-04-21T08:07:47.673Z,13.00
2019-04-21T08:10:07.839Z,14.90
2019-04-21T08:12:30.433Z,14.67
2019-04-21T08:15:14.556Z,12.83
2019-04-21T08:17:35.961Z,15.37
2019-04-21T08:19:59.057Z,13.47
2019-04-21T08:22:44.969Z,12.63
2019-04-21T08:25:05.714Z,11.10
2019-04-21T08:27:40.440Z,14.33
2019-04-21T08:30:04.874Z,11.27
2019-04-21T08:32:44.415Z,12.43
2019-04-21T08:35:21.493Z,12.70
2019-04-21T08:37:30.735Z,12.70
2019-04-21T08:40:09.403Z,14.30
2019-04-21T08:42:35.158Z,12.40
2019-04-21T08:45:11.087Z,13.37
2019-04-21T08:47:39.656Z,13.77
2019-04-21T08:50:00.732Z,12.03
2019-04-21T08:55:18.338Z,12.83
2019-04-21T08:58:03.909Z,10.77
2019-04-21T09:00:26.002Z,12.00
2019-04-21T09:02:56.961Z,12.63
2019-04-21T09:05:23.591Z,12.73
2019-04-21T09:07:57.418Z,13.90
2019-04-21T09:10:23.544Z,12.17
2019-04-21T09:12:51.771Z,11.67
2019-04-21T09:15:30.038Z,11.47
2019-04-21T09:17:49.194Z,13.30
2019-04-21T09:20:26.563Z,11.07
2019-04-21T09:22:56.667Z,13.20
2019-04-21T09:25:26.909Z,12.30
2019-04-21T09:27:59.446Z,11.33
2019-04-21T09:30:08.731Z,9.53
2019-04-21T09:32:38.490Z,9.40
2019-04-21T09:35:10.706Z,11.40
2019-04-21T09:37:44.359Z,13.17
2019-04-21T09:40:07.034Z,11.20
2019-04-21T09:42:42.120Z,10.13
2019-04-21T09:45:08.584Z,10.17
2019-04-21T09:47:45.072Z,11.60
2019-04-21T09:50:09.580Z,10.32
2019-04-21T09:52:45.113Z,10.65
2019-04-21T09:55:13.371Z,10.68
2019-04-21T09:57:43.319Z,11.05
2019-04-21T10:00:14.297Z,10.90
2019-04-21T10:02:49.763Z,9.95
2019-04-21T10:05:08.179Z,10.63
2019-04-21T10:07:41.423Z,12.15
2019-04-21T10:10:10.550Z,10.68
2019-04-21T10:12:38.882Z,11.18
2019-04-21T10:15:08.415Z,9.88
2019-04-21T10:17:41.786Z,11.22
2019-04-21T10:20:11.691Z,9.65
2019-04-21T10:22:41.333Z,8.98
2019-04-21T10:25:10.476Z,10.88
2019-04-21T10:27:39.238Z,11.40
2019-04-21T10:30:09.971Z,10.53
2019-04-21T10:32:38.593Z,11.35
2019-04-21T10:35:07.515Z,9.80
2019-04-21T10:37:47.051Z,10.28
2019-04-21T10:40:07.554Z,13.43
2019-04-21T10:42:37.260Z,12.65
2019-04-21T10:45:07.214Z,10.18
2019-04-21T10:47:36.825Z,11.08
2019-04-21T10:50:08.765Z,10.75
2019-04-21T10:52:55.220Z,8.38
2019-04-21T10:55:41.739Z,8.75
2019-04-21T10:58:06.536Z,12.50
2019-04-21T11:00:36.412Z,9.28
2019-04-21T11:03:22.863Z,9.20
2019-04-21T11:05:52.825Z,8.88
2019-04-21T11:08:25.539Z,9.43
2019-04-21T11:10:51.949Z,8.80
2019-04-21T11:13:20.785Z,11.03
2019-04-21T11:15:49.156Z,7.75
2019-04-21T11:18:17.731Z,8.28
2019-04-21T11:20:46.922Z,7.67
2019-04-21T11:23:17.202Z,7.97
2019-04-21T11:25:46.196Z,7.15
2019-04-21T11:28:14.514Z,7.85
2019-04-21T11:30:44.444Z,8.33
2019-04-21T11:33:13.154Z,10.30
2019-04-21T11:35:41.634Z,8.28
2019-04-21T11:38:21.822Z,8.28
2019-04-21T11:40:47.599Z,7.75
2019-04-21T11:43:16.035Z,10.50
2019-04-21T11:45:44.396Z,7.65
2019-04-21T11:48:28.591Z,6.50
2019-04-21T11:50:57.271Z,9.58
2019-04-21T11:53:25.814Z,6.42
2019-04-21T11:55:55.596Z,7.25
2019-04-21T11:58:24.092Z,5.83
2019-04-21T12:01:00.204Z,10.30
2019-04-21T12:03:29.496Z,8.68
2019-04-21T12:05:57.835Z,6.65
2019-04-21T12:08:33.202Z,7.72
2019-04-21T12:10:56.116Z,9.25
2019-04-21T12:13:24.599Z,6.72
2019-04-21T12:15:52.970Z,6.20
2019-04-21T12:18:22.247Z,6.80
2019-04-21T12:20:51.630Z,8.55
2019-04-21T12:23:20.458Z,6.55
2019-04-21T12:25:49.485Z,6.92
2019-04-21T12:28:17.871Z,10.13
2019-04-21T12:30:49.648Z,5.97
2019-04-21T12:33:25.393Z,6.05
2019-04-21T12:35:53.800Z,7.35
2019-04-21T12:38:32.334Z,8.00
2019-04-21T12:40:52.753Z,6.65
2019-04-21T12:43:21.206Z,7.03
2019-04-21T12:45:49.554Z,8.20
2019-04-21T12:48:18.067Z,6.10
2019-04-21T12:50:47.857Z,6.72
2019-04-21T12:53:17.859Z,6.37
2019-04-21T12:55:47.720Z,7.87
2019-04-21T12:58:17.274Z,6.35
2019-04-21T13:00:47.054Z,5.60
2019-04-21T13:03:15.890Z,6.08
2019-04-21T13:05:45.431Z,6.50
2019-04-21T13:08:13.743Z,6.67
2019-04-21T13:10:42.264Z,6.33
2019-04-21T13:13:10.674Z,6.37
2019-04-21T13:15:39.809Z,6.78
2019-04-21T13:18:08.298Z,5.85
2019-04-21T13:20:37.921Z,5.97
2019-04-21T13:23:06.517Z,5.10
2019-04-21T13:25:35.945Z,7.50
2019-04-21T13:28:04.996Z,8.25
2019-04-21T13:30:33.454Z,5.75
2019-04-21T13:33:03.016Z,5.20
2019-04-21T13:35:33.049Z,5.25
2019-04-21T13:38:02.649Z,5.75
2019-04-21T13:40:51.766Z,6.83
2019-04-21T13:43:06.642Z,5.62
2019-04-21T13:45:34.396Z,5.92
2019-04-21T13:48:04.389Z,5.33
2019-04-21T13:50:33.259Z,6.00
2019-04-21T13:53:02.799Z,7.62
2019-04-21T13:55:31.867Z,5.97
2019-04-21T13:58:00.254Z,6.12
2019-04-21T14:00:29.625Z,5.80
2019-04-21T14:02:58.786Z,5.25
2019-04-21T14:05:28.552Z,5.30
2019-04-21T14:07:58.032Z,5.80
2019-04-21T14:10:26.423Z,5.75
2019-04-21T14:12:56.252Z,5.67
2019-04-21T14:15:24.618Z,5.22
2019-04-21T14:17:53.218Z,5.80
2019-04-21T14:20:21.633Z,6.47
2019-04-21T14:22:49.973Z,6.92
2019-04-21T14:25:19.529Z,5.92
2019-04-21T14:27:50.325Z,5.37
2019-04-21T14:30:18.681Z,6.28
2019-04-21T14:32:47.603Z,5.87
2019-04-21T14:35:16.715Z,5.40
2019-04-21T14:37:46.606Z,6.47
2019-04-21T14:40:20.679Z,6.90
2019-04-21T14:42:45.266Z,5.30
2019-04-21T14:45:28.250Z,6.33
2019-04-21T14:47:58.981Z,5.47
2019-04-21T14:50:48.343Z,5.33
2019-04-21T14:53:18.354Z,5.00
2019-04-21T14:55:46.944Z,6.20
2019-04-21T14:58:15.203Z,5.22
2019-04-21T15:00:55.728Z,5.05
2019-04-21T15:03:24.075Z,5.33
2019-04-21T15:05:53.484Z,6.25
2019-04-21T15:08:21.899Z,4.97
2019-04-21T15:10:50.175Z,6.33
2019-04-21T15:13:19.561Z,5.28
2019-04-21T15:15:47.982Z,5.10
2019-04-21T15:18:16.854Z,7.75
2019-04-21T15:20:47.275Z,6.03
2019-04-21T15:23:15.264Z,6.65
2019-04-21T15:25:43.973Z,5.28
2019-04-21T15:28:13.705Z,5.28
2019-04-21T15:30:42.753Z,5.70
2019-04-21T15:33:11.078Z,5.55
2019-04-21T15:35:40.619Z,6.03
2019-04-21T15:38:09.753Z,5.37
2019-04-21T15:40:46.806Z,5.20
2019-04-21T15:43:08.548Z,4.83
2019-04-21T15:45:37.141Z,5.70
2019-04-21T15:48:05.407Z,8.08
2019-04-21T15:50:33.710Z,4.87
2019-04-21T15:53:03.669Z,4.87
2019-04-21T15:55:41.140Z,5.17
2019-04-21T15:58:23.037Z,4.72
2019-04-21T16:00:56.509Z,7.03
2019-04-21T16:03:24.924Z,8.00
2019-04-21T16:05:53.696Z,6.37
2019-04-21T16:08:22.082Z,6.92
2019-04-21T16:10:56.395Z,5.65
2019-04-21T16:13:21.596Z,5.08
2019-04-21T16:15:50.565Z,7.53
2019-04-21T16:18:20.332Z,5.15
2019-04-21T16:20:50.100Z,5.35
2019-04-21T16:23:20.180Z,6.67
2019-04-21T16:25:48.771Z,5.58
2019-04-21T16:28:17.338Z,4.78
2019-04-21T16:30:46.585Z,6.62
2019-04-21T16:33:15.995Z,6.03
2019-04-21T16:35:44.404Z,5.72
2019-04-21T16:38:13.361Z,9.55
2019-04-21T16:40:51.875Z,6.05
2019-04-21T16:43:12.263Z,5.20
2019-04-21T16:45:41.127Z,5.90
2019-04-21T16:48:09.580Z,5.55
2019-04-21T16:50:37.830Z,6.53
2019-04-21T16:53:14.377Z,8.55
2019-04-21T16:55:44.953Z,5.83
2019-04-21T16:58:31.016Z,6.00
2019-04-21T17:01:15.875Z,7.55
2019-04-21T17:03:42.427Z,4.90
2019-04-21T17:06:11.194Z,5.58
2019-04-21T17:08:40.930Z,12.05
2019-04-21T17:11:17.258Z,5.62
2019-04-21T17:13:39.838Z,8.00
2019-04-21T17:16:38.577Z,6.67
2019-04-21T17:18:50.883Z,6.35
2019-04-21T17:21:09.293Z,7.20
2019-04-21T17:23:38.273Z,6.55
2019-04-21T17:26:06.665Z,6.22
2019-04-21T17:28:36.339Z,6.70
2019-04-21T17:31:04.816Z,5.47
2019-04-21T17:33:33.881Z,6.87
2019-04-21T17:36:03.312Z,6.33
2019-04-21T17:38:32.101Z,6.78
2019-04-21T17:41:14.195Z,7.05
2019-04-21T17:43:31.871Z,7.65
2019-04-21T17:46:00.256Z,7.40
2019-04-21T17:48:29.312Z,6.63
2019-04-21T17:50:59.439Z,6.63
2019-04-21T17:53:43.251Z,7.17
2019-04-21T17:56:39.033Z,8.80
2019-04-21T17:58:58.118Z,8.03
2019-04-21T18:01:26.428Z,7.13
2019-04-21T18:06:32.695Z,7.40
2019-04-21T18:09:04.373Z,7.23
2019-04-21T18:11:22.784Z,6.47
2019-04-21T18:13:41.835Z,6.43
2019-04-21T18:16:23.058Z,10.40
2019-04-21T18:18:41.148Z,7.30
2019-04-21T18:21:18.568Z,8.23
2019-04-21T18:23:57.424Z,7.83
2019-04-21T18:26:28.860Z,9.37
2019-04-21T18:28:48.671Z,12.73
2019-04-21T18:31:18.431Z,13.03
2019-04-21T18:33:49.402Z,18.43
2019-04-21T18:36:29.082Z,15.53
2019-04-21T18:39:09.808Z,13.27
2019-04-21T18:41:30.265Z,19.90
2019-04-21T18:44:41.343Z,30.07
2019-04-21T18:47:09.662Z,32.17
2019-04-21T18:49:24.630Z,26.87
2019-04-21T18:52:02.770Z,24.00
2019-04-21T18:54:53.910Z,17.10
2019-04-21T18:57:13.658Z,15.37
2019-04-21T18:59:36.188Z,13.57
2019-04-21T19:02:08.043Z,12.63
2019-04-21T19:04:35.676Z,13.03
2019-04-21T19:07:18.161Z,14.40
2019-04-21T19:10:10.895Z,13.47
2019-04-21T19:12:35.354Z,14.57
2019-04-21T19:14:50.623Z,12.33
2019-04-21T19:17:42.691Z,13.67
2019-04-21T19:19:54.810Z,10.83
2019-04-21T19:22:21.671Z,12.43
2019-04-21T19:24:52.279Z,11.90
2019-04-21T19:27:22.775Z,16.20
2019-04-21T19:29:59.053Z,15.90
2019-04-21T19:32:25.620Z,14.70
2019-04-21T19:34:39.944Z,12.70
2019-04-21T19:37:12.615Z,15.70
2019-04-21T19:39:48.486Z,14.40
2019-04-21T19:42:16.907Z,14.97
2019-04-21T19:44:52.571Z,12.30
2019-04-21T19:47:28.304Z,17.37
2019-04-21T19:49:58.410Z,12.13
2019-04-21T19:52:11.644Z,14.67
2019-04-21T19:54:39.730Z,15.17
2019-04-21T19:57:04.994Z,16.03
2019-04-21T19:59:41.742Z,17.60
2019-04-21T20:02:04.641Z,14.97
2019-04-21T20:04:41.823Z,17.27
2019-04-21T20:07:22.129Z,15.77
2019-04-21T20:09:49.055Z,17.93
2019-04-21T20:12:18.407Z,22.27
2019-04-21T20:14:52.192Z,23.13
2019-04-21T20:17:16.422Z,26.00
2019-04-21T20:19:34.177Z,21.90
2019-04-21T20:22:03.142Z,15.57
2019-04-21T20:24:33.724Z,16.03
2019-04-21T20:27:11.689Z,18.87
2019-04-21T20:29:54.175Z,21.47
2019-04-21T20:32:26.709Z,19.73
2019-04-21T20:34:59.152Z,21.87
2019-04-21T20:37:23.254Z,22.97
2019-04-21T20:39:45.193Z,22.00
2019-04-21T20:42:19.364Z,22.43
2019-04-21T20:44:52.657Z,20.70
2019-04-21T20:47:12.917Z,21.70
2019-04-21T20:49:41.080Z,20.90
2019-04-21T20:52:24.532Z,21.23
2019-04-21T20:54:45.521Z,22.57
2019-04-21T20:57:19.004Z,18.33
2019-04-21T20:59:46.677Z,23.57
2019-04-21T21:02:19.022Z,23.00
2019-04-21T21:04:43.432Z,19.63
2019-04-21T21:07:30.614Z,29.00
2019-04-21T21:09:55.997Z,22.20
2019-04-21T21:14:45.949Z,20.53
2019-04-21T21:17:36.206Z,19.83
2019-04-21T21:19:53.616Z,19.57
2019-04-21T21:22:14.864Z,17.77
2019-04-21T21:24:53.238Z,19.03
2019-04-21T21:27:19.212Z,19.33
2019-04-21T21:29:49.955Z,18.27
2019-04-21T21:32:21.940Z,22.40
2019-04-21T21:34:53.535Z,21.03
2019-04-21T21:37:28.730Z,21.87
2019-04-21T21:42:07.305Z,21.37
2019-04-21T21:44:35.263Z,14.27
2019-04-21T21:47:14.420Z,18.50
2019-04-21T21:49:46.777Z,15.23
2019-04-21T21:52:12.839Z,15.27
2019-04-21T21:54:33.833Z,15.53
2019-04-21T21:57:02.640Z,15.17
2019-04-21T21:59:33.622Z,17.83
2019-04-21T22:02:03.110Z,15.80
2019-04-21T22:04:34.139Z,17.50
2019-04-21T22:07:09.313Z,16.73
2019-04-21T22:09:32.291Z,17.67
2019-04-21T22:12:04.778Z,18.23
2019-04-21T22:14:37.173Z,13.73
2019-04-21T22:17:20.321Z,17.17
2019-04-21T22:19:56.549Z,19.33
2019-04-21T22:22:13.000Z,22.33
2019-04-21T22:24:46.997Z,19.40
2019-04-21T22:27:01.176Z,18.43
2019-04-21T22:29:37.846Z,15.53
2019-04-21T22:32:07.846Z,15.07
2019-04-21T22:34:35.958Z,16.83
2019-04-21T22:37:19.035Z,26.17
2019-04-21T22:39:49.767Z,19.53
2019-04-21T22:42:05.810Z,15.93
2019-04-21T22:44:30.205Z,18.57
2019-04-21T22:47:10.969Z,17.00
2019-04-21T22:49:28.695Z,19.77
2019-04-21T22:52:00.809Z,20.13
2019-04-21T22:54:35.488Z,14.47
2019-04-21T22:57:05.251Z,16.77
2019-04-21T22:59:28.577Z,17.10
2019-04-21T23:01:57.611Z,13.30
2019-04-21T23:04:34.224Z,15.57
2019-04-21T23:07:02.181Z,14.53
2019-04-21T23:09:26.692Z,13.33
2019-04-21T23:11:56.621Z,14.37
2019-04-21T23:14:25.858Z,16.73
2019-04-21T23:17:04.038Z,11.33
2019-04-21T23:19:38.747Z,11.27
2019-04-21T23:22:14.721Z,11.30
2019-04-21T23:24:45.638Z,11.93
2019-04-21T23:27:11.114Z,14.60
2019-04-21T23:29:52.683Z,14.50
2019-04-21T23:32:08.539Z,19.40
2019-04-21T23:34:31.939Z,19.10
2019-04-21T23:37:03.205Z,22.87
2019-04-21T23:39:28.978Z,19.17
2019-04-21T23:41:55.945Z,15.07
2019-04-21T23:44:24.313Z,16.27
2019-04-21T23:46:57.566Z,15.40
2019-04-21T23:49:35.155Z,11.93
2019-04-21T23:52:00.269Z,14.70
2019-04-21T23:54:23.171Z,12.83
2019-04-21T23:56:51.734Z,11.43
2019-04-21T23:59:20.582Z,11.83
